createdAt,value
2018-11-04T00:00:25.858Z,31.40
2018-11-04T00:02:54.411Z,31.20
2018-11-04T00:05:22.957Z,32.40
2018-11-04T00:07:52.213Z,31.13
2018-11-04T00:10:21.005Z,37.27
2018-11-04T00:12:49.625Z,33.27
2018-11-04T00:15:18.136Z,35.60
2018-11-04T00:17:46.855Z,29.90
2018-11-04T00:20:15.851Z,28.90
2018-11-04T00:22:44.505Z,29.10
2018-11-04T00:25:14.086Z,29.67
2018-11-04T00:27:42.651Z,29.17
2018-11-04T00:30:14.098Z,32.60
2018-11-04T00:32:43.064Z,30.77
2018-11-04T00:35:11.990Z,29.33
2018-11-04T00:37:40.758Z,27.87
2018-11-04T00:40:09.565Z,30.30
2018-11-04T00:42:38.475Z,28.03
2018-11-04T00:45:08.733Z,33.10
2018-11-04T00:47:37.952Z,33.13
2018-11-04T00:50:09.032Z,30.43
2018-11-04T00:52:37.553Z,26.93
2018-11-04T00:55:06.754Z,29.70
2018-11-04T00:57:35.293Z,30.40
2018-11-04T01:00:04.922Z,26.90
2018-11-04T01:02:33.439Z,28.20
2018-11-04T01:05:01.984Z,30.30
2018-11-04T01:07:30.551Z,29.03
2018-11-04T01:09:59.140Z,29.73
2018-11-04T01:12:27.648Z,31.07
2018-11-04T01:14:56.268Z,31.67
2018-11-04T01:17:25.051Z,30.47
2018-11-04T01:19:53.585Z,25.87
2018-11-04T01:22:22.121Z,30.87
2018-11-04T01:24:50.691Z,26.30
2018-11-04T01:27:19.225Z,28.10
2018-11-04T01:29:47.777Z,29.53
2018-11-04T01:32:16.464Z,29.83
2018-11-04T01:34:45.011Z,28.43
2018-11-04T01:37:14.375Z,27.57
2018-11-04T01:39:43.166Z,24.00
2018-11-04T01:42:11.720Z,23.30
2018-11-04T01:44:40.329Z,24.67
2018-11-04T01:47:08.850Z,23.27
2018-11-04T01:49:37.398Z,22.57
2018-11-04T01:54:27.286Z,23.20
2018-11-04T01:56:55.819Z,26.30
2018-11-04T01:59:24.378Z,23.63
2018-11-04T02:01:52.921Z,26.73
2018-11-04T02:04:21.479Z,27.00
2018-11-04T02:06:50.045Z,28.67
2018-11-04T02:09:18.619Z,22.90
2018-11-04T02:11:47.148Z,27.33
2018-11-04T02:14:15.712Z,25.67
2018-11-04T02:16:44.315Z,25.80
2018-11-04T02:19:12.858Z,28.77
2018-11-04T02:21:41.400Z,24.10
2018-11-04T02:24:10.169Z,23.97
2018-11-04T02:26:38.734Z,26.87
2018-11-04T02:29:07.271Z,25.50
2018-11-04T02:31:36.571Z,23.57
2018-11-04T02:34:05.195Z,28.00
2018-11-04T02:36:33.762Z,24.90
2018-11-04T02:39:02.830Z,25.10
2018-11-04T02:41:31.399Z,23.00
2018-11-04T02:43:59.919Z,25.97
2018-11-04T02:46:28.491Z,25.77
2018-11-04T02:48:57.015Z,26.43
2018-11-04T02:51:25.579Z,22.30
2018-11-04T02:53:54.678Z,26.10
2018-11-04T02:56:23.268Z,27.93
2018-11-04T02:58:51.793Z,25.83
2018-11-04T03:01:20.335Z,23.77
2018-11-04T03:03:48.947Z,26.40
2018-11-04T03:06:17.525Z,23.87
2018-11-04T03:08:46.116Z,25.20
2018-11-04T03:11:14.675Z,23.07
2018-11-04T03:13:43.439Z,24.90
2018-11-04T03:16:12.202Z,28.27
2018-11-04T03:18:41.454Z,23.60
2018-11-04T03:21:10.003Z,27.30
2018-11-04T03:23:38.548Z,24.53
2018-11-04T03:26:07.110Z,26.30
2018-11-04T03:28:35.631Z,23.57
2018-11-04T03:31:04.688Z,28.90
2018-11-04T03:33:33.230Z,26.83
2018-11-04T03:36:01.778Z,25.63
2018-11-04T03:38:30.878Z,26.03
2018-11-04T03:40:59.566Z,26.07
2018-11-04T03:43:28.102Z,25.47
2018-11-04T03:45:56.653Z,26.70
2018-11-04T03:48:25.308Z,23.50
2018-11-04T03:50:53.866Z,23.80
2018-11-04T03:53:22.420Z,27.73
2018-11-04T03:55:50.976Z,26.17
2018-11-04T03:58:19.494Z,26.00
2018-11-04T04:00:48.031Z,25.33
2018-11-04T04:03:16.607Z,31.80
2018-11-04T04:05:45.223Z,27.20
2018-11-04T04:08:13.781Z,30.50
2018-11-04T04:10:42.376Z,25.47
2018-11-04T04:13:11.112Z,29.47
2018-11-04T04:15:39.684Z,27.70
2018-11-04T04:18:08.374Z,26.00
2018-11-04T04:20:36.911Z,32.33
2018-11-04T04:23:05.806Z,28.03
2018-11-04T04:25:34.351Z,30.73
2018-11-04T04:28:02.908Z,27.03
2018-11-04T04:30:31.449Z,26.80
2018-11-04T04:33:00.040Z,27.93
2018-11-04T04:35:28.574Z,24.40
2018-11-04T04:37:57.118Z,26.53
2018-11-04T04:40:25.691Z,23.83
2018-11-04T04:42:54.250Z,26.40
2018-11-04T04:45:22.762Z,26.50
2018-11-04T04:47:51.327Z,27.07
2018-11-04T04:50:19.853Z,27.80
2018-11-04T04:52:48.386Z,26.87
2018-11-04T04:55:16.966Z,26.30
2018-11-04T04:57:45.528Z,28.30
2018-11-04T05:00:14.070Z,25.90
2018-11-04T05:02:42.627Z,27.70
2018-11-04T05:05:11.258Z,26.33
2018-11-04T05:07:39.818Z,29.90
2018-11-04T05:10:08.434Z,27.37
2018-11-04T05:12:36.993Z,26.43
2018-11-04T05:15:07.299Z,24.77
2018-11-04T05:17:35.832Z,26.03
2018-11-04T05:20:05.428Z,25.20
2018-11-04T05:22:33.982Z,22.90
2018-11-04T05:25:02.649Z,22.67
2018-11-04T05:27:31.253Z,26.20
2018-11-04T05:29:59.843Z,22.23
2018-11-04T05:32:29.255Z,25.30
2018-11-04T05:34:58.629Z,25.57
2018-11-04T05:37:27.178Z,27.83
2018-11-04T05:39:55.724Z,27.07
2018-11-04T05:42:24.265Z,28.13
2018-11-04T05:44:52.823Z,30.77
2018-11-04T05:47:21.970Z,26.20
2018-11-04T05:49:51.126Z,32.23
2018-11-04T05:52:19.685Z,29.87
2018-11-04T05:54:48.329Z,24.40
2018-11-04T05:57:16.863Z,29.67
2018-11-04T05:59:45.579Z,28.90
2018-11-04T06:02:14.427Z,28.90
2018-11-04T06:04:43.091Z,26.27
2018-11-04T06:07:11.657Z,28.53
2018-11-04T06:09:40.405Z,33.03
2018-11-04T06:12:08.959Z,29.97
2018-11-04T06:14:37.516Z,30.20
2018-11-04T06:17:06.039Z,29.37
2018-11-04T06:19:34.668Z,27.60
2018-11-04T06:22:03.162Z,29.70
2018-11-04T06:24:31.707Z,28.37
2018-11-04T06:27:00.234Z,26.43
2018-11-04T06:29:28.793Z,29.80
2018-11-04T06:31:57.319Z,29.87
2018-11-04T06:34:25.968Z,27.93
2018-11-04T06:36:54.644Z,29.60
2018-11-04T06:39:23.178Z,29.60
2018-11-04T06:41:51.716Z,27.70
2018-11-04T06:44:20.369Z,26.87
2018-11-04T06:46:48.899Z,29.77
2018-11-04T06:49:17.502Z,31.20
2018-11-04T06:51:46.077Z,31.93
2018-11-04T06:54:14.665Z,28.50
2018-11-04T06:56:43.210Z,29.17
2018-11-04T06:59:11.771Z,30.97
2018-11-04T07:01:40.286Z,26.60
2018-11-04T07:04:25.167Z,31.90
2018-11-04T07:06:53.687Z,33.07
2018-11-04T07:09:22.286Z,30.10
2018-11-04T07:11:51.094Z,28.13
2018-11-04T07:14:20.201Z,31.47
2018-11-04T07:16:48.738Z,29.70
2018-11-04T07:19:17.507Z,31.03
2018-11-04T07:21:46.064Z,32.30
2018-11-04T07:24:14.727Z,28.07
2018-11-04T07:26:43.293Z,31.20
2018-11-04T07:29:11.841Z,31.00
2018-11-04T07:31:40.403Z,30.13
2018-11-04T07:34:09.032Z,29.50
2018-11-04T07:36:38.303Z,26.90
2018-11-04T07:39:10.202Z,32.27
2018-11-04T07:41:38.824Z,28.93
2018-11-04T07:44:07.413Z,30.80
2018-11-04T07:46:36.054Z,28.87
2018-11-04T07:49:04.942Z,32.87
2018-11-04T07:51:33.623Z,32.60
2018-11-04T07:54:02.134Z,31.33
2018-11-04T07:56:30.662Z,33.40
2018-11-04T07:58:59.186Z,34.57
2018-11-04T08:01:27.824Z,29.53
2018-11-04T08:03:56.411Z,32.00
2018-11-04T08:06:24.945Z,29.57
2018-11-04T08:08:53.553Z,28.37
2018-11-04T08:11:22.561Z,35.10
2018-11-04T08:13:51.234Z,31.87
2018-11-04T08:16:19.946Z,34.83
2018-11-04T08:18:48.501Z,33.50
2018-11-04T08:21:17.148Z,28.53
2018-11-04T08:23:45.707Z,31.33
2018-11-04T08:26:14.286Z,32.93
2018-11-04T08:28:42.843Z,33.53
2018-11-04T08:31:11.398Z,32.80
2018-11-04T08:33:39.940Z,38.27
2018-11-04T08:36:08.713Z,33.27
2018-11-04T08:38:37.228Z,31.03
2018-11-04T08:41:05.798Z,30.93
2018-11-04T08:43:34.447Z,31.20
2018-11-04T08:46:03.371Z,37.33
2018-11-04T08:48:32.205Z,30.67
2018-11-04T08:51:00.766Z,33.27
2018-11-04T08:53:29.395Z,34.87
2018-11-04T08:55:57.957Z,34.40
2018-11-04T08:58:27.523Z,30.73
2018-11-04T09:00:56.107Z,32.80
2018-11-04T09:03:24.652Z,27.60
2018-11-04T09:05:53.216Z,29.27
2018-11-04T09:08:21.768Z,34.13
2018-11-04T09:10:50.309Z,31.73
2018-11-04T09:13:19.367Z,29.40
2018-11-04T09:15:47.915Z,34.33
2018-11-04T09:18:16.449Z,34.00
2018-11-04T09:20:45.002Z,30.63
2018-11-04T09:23:13.525Z,32.00
2018-11-04T09:25:42.100Z,33.90
2018-11-04T09:28:10.629Z,31.00
2018-11-04T09:30:39.247Z,29.57
2018-11-04T09:33:07.769Z,34.80
2018-11-04T09:35:36.538Z,33.13
2018-11-04T09:38:05.259Z,30.67
2018-11-04T09:40:33.821Z,28.80
2018-11-04T09:43:02.410Z,29.93
2018-11-04T09:45:30.943Z,33.53
2018-11-04T09:47:59.750Z,37.33
2018-11-04T09:50:28.281Z,31.30
2018-11-04T09:52:57.050Z,33.23
2018-11-04T09:55:25.638Z,29.30
2018-11-04T09:57:54.192Z,29.37
2018-11-04T10:00:22.717Z,30.70
2018-11-04T10:02:51.287Z,40.33
2018-11-04T10:05:19.849Z,35.97
2018-11-04T10:07:48.407Z,31.37
2018-11-04T10:10:16.980Z,31.93
2018-11-04T10:12:45.646Z,37.90
2018-11-04T10:15:14.699Z,33.30
2018-11-04T10:17:43.310Z,33.90
2018-11-04T10:20:12.728Z,33.10
2018-11-04T10:22:41.715Z,32.10
2018-11-04T10:25:11.840Z,34.00
2018-11-04T10:27:41.047Z,35.93
2018-11-04T10:30:12.228Z,32.50
2018-11-04T10:32:40.863Z,35.50
2018-11-04T10:35:10.050Z,33.33
2018-11-04T10:37:39.376Z,28.10
2018-11-04T10:40:09.286Z,30.30
2018-11-04T10:42:37.865Z,27.47
2018-11-04T10:45:07.658Z,28.43
2018-11-04T10:47:36.212Z,28.30
2018-11-04T10:50:05.967Z,27.80
2018-11-04T10:52:34.524Z,31.60
2018-11-04T10:55:03.230Z,29.63
2018-11-04T10:57:31.789Z,35.27
2018-11-04T11:00:00.330Z,27.57
2018-11-04T11:02:28.906Z,34.30
2018-11-04T11:04:57.658Z,37.27
2018-11-04T11:07:26.206Z,34.77
2018-11-04T11:09:55.921Z,35.20
2018-11-04T11:12:24.493Z,41.93
2018-11-04T11:14:53.056Z,37.47
2018-11-04T11:17:21.631Z,30.27
2018-11-04T11:19:50.151Z,37.90
2018-11-04T11:22:18.676Z,34.10
2018-11-04T11:24:47.356Z,33.23
2018-11-04T11:27:16.527Z,28.07
2018-11-04T11:29:45.110Z,31.47
2018-11-04T11:32:13.618Z,36.60
2018-11-04T11:34:42.202Z,32.70
2018-11-04T11:37:10.751Z,34.90
2018-11-04T11:39:39.314Z,34.23
2018-11-04T11:42:07.858Z,29.57
2018-11-04T11:44:36.468Z,28.67
2018-11-04T11:47:05.233Z,32.57
2018-11-04T11:49:33.871Z,31.17
2018-11-04T11:52:02.472Z,30.20
2018-11-04T11:54:31.184Z,33.70
2018-11-04T11:56:59.723Z,28.30
2018-11-04T11:59:28.385Z,32.20
2018-11-04T12:01:56.949Z,30.30
2018-11-04T12:04:25.563Z,29.00
2018-11-04T12:06:54.090Z,34.53
2018-11-04T12:09:22.670Z,28.40
2018-11-04T12:11:51.222Z,33.20
2018-11-04T12:14:19.782Z,35.00
2018-11-04T12:16:48.306Z,33.93
2018-11-04T12:19:16.857Z,32.27
2018-11-04T12:21:45.386Z,36.53
2018-11-04T12:24:13.949Z,28.70
2018-11-04T12:26:42.476Z,34.27
2018-11-04T12:29:11.149Z,35.10
2018-11-04T12:31:39.667Z,31.20
2018-11-04T12:34:08.458Z,25.47
2018-11-04T12:36:37.005Z,30.03
2018-11-04T12:39:08.197Z,30.47
2018-11-04T12:41:36.748Z,31.13
2018-11-04T12:44:05.542Z,26.67
2018-11-04T12:46:34.139Z,24.83
2018-11-04T12:49:02.923Z,27.10
2018-11-04T12:51:31.450Z,29.97
2018-11-04T12:54:00.007Z,26.20
2018-11-04T12:56:28.642Z,28.00
2018-11-04T12:58:57.479Z,26.93
2018-11-04T13:01:26.233Z,23.97
2018-11-04T13:03:55.272Z,31.40
2018-11-04T13:06:23.851Z,27.03
2018-11-04T13:08:52.510Z,23.50
2018-11-04T13:11:21.096Z,45.53
2018-11-04T13:13:49.638Z,23.87
2018-11-04T13:16:18.165Z,27.07
2018-11-04T13:18:46.714Z,23.30
2018-11-04T13:21:15.346Z,21.53
2018-11-04T13:23:43.906Z,23.00
2018-11-04T13:26:12.476Z,22.87
2018-11-04T13:28:41.018Z,22.90
2018-11-04T13:31:09.586Z,21.60
2018-11-04T13:33:38.131Z,23.33
2018-11-04T13:36:06.727Z,20.17
2018-11-04T13:38:35.291Z,30.00
2018-11-04T13:41:03.859Z,24.50
2018-11-04T13:43:32.443Z,23.53
2018-11-04T13:46:01.087Z,24.63
2018-11-04T13:48:29.637Z,23.57
2018-11-04T13:50:58.337Z,26.17
2018-11-04T13:53:26.898Z,24.33
2018-11-04T13:55:55.484Z,23.53
2018-11-04T13:58:24.289Z,25.30
2018-11-04T14:00:52.857Z,24.93
2018-11-04T14:03:21.421Z,27.43
2018-11-04T14:05:49.983Z,25.00
2018-11-04T14:08:18.574Z,23.47
2018-11-04T14:10:47.222Z,19.53
2018-11-04T14:13:15.826Z,22.77
2018-11-04T14:15:44.489Z,22.50
2018-11-04T14:18:13.159Z,19.07
2018-11-04T14:20:41.791Z,25.40
2018-11-04T14:23:10.483Z,20.50
2018-11-04T14:25:39.135Z,20.93
2018-11-04T14:28:07.999Z,19.47
2018-11-04T14:30:36.704Z,23.30
2018-11-04T14:33:05.373Z,22.20
2018-11-04T14:35:33.923Z,23.43
2018-11-04T14:38:02.610Z,21.67
2018-11-04T14:40:31.373Z,23.47
2018-11-04T14:43:00.220Z,26.13
2018-11-04T14:45:28.965Z,25.90
2018-11-04T14:47:57.498Z,24.77
2018-11-04T14:50:26.199Z,26.00
2018-11-04T14:52:55.106Z,26.10
2018-11-04T14:55:23.614Z,25.73
2018-11-04T14:57:52.141Z,36.30
2018-11-04T15:00:20.766Z,30.00
2018-11-04T15:02:49.382Z,26.37
2018-11-04T15:05:18.203Z,23.27
2018-11-04T15:07:46.731Z,23.53
2018-11-04T15:10:16.487Z,26.90
2018-11-04T15:12:45.308Z,22.57
2018-11-04T15:15:15.587Z,22.60
2018-11-04T15:17:44.159Z,24.27
2018-11-04T15:20:13.088Z,22.90
2018-11-04T15:22:44.231Z,26.53
2018-11-04T15:25:12.810Z,28.87
2018-11-04T15:27:41.334Z,23.10
2018-11-04T15:30:10.821Z,21.80
2018-11-04T15:32:39.721Z,26.97
2018-11-04T15:35:08.495Z,23.73
2018-11-04T15:37:37.056Z,24.43
2018-11-04T15:40:07.241Z,23.53
2018-11-04T15:42:35.788Z,22.13
2018-11-04T15:45:04.606Z,24.47
2018-11-04T15:47:33.167Z,23.10
2018-11-04T15:50:01.729Z,26.23
2018-11-04T15:52:30.251Z,26.03
2018-11-04T15:54:58.834Z,24.70
2018-11-04T15:57:27.372Z,29.60
2018-11-04T15:59:55.933Z,22.67
2018-11-04T16:02:24.458Z,23.20
2018-11-04T16:04:53.014Z,23.40
2018-11-04T16:07:21.557Z,20.70
2018-11-04T16:09:50.164Z,25.30
2018-11-04T16:12:18.774Z,27.63
2018-11-04T16:14:47.305Z,27.67
2018-11-04T16:17:15.853Z,25.40
2018-11-04T16:19:44.522Z,25.20
2018-11-04T16:22:13.079Z,21.67
2018-11-04T16:24:41.664Z,19.27
2018-11-04T16:27:10.274Z,22.27
2018-11-04T16:29:38.829Z,23.70
2018-11-04T16:32:07.419Z,23.30
2018-11-04T16:34:35.963Z,22.27
2018-11-04T16:37:04.666Z,25.60
2018-11-04T16:39:33.213Z,26.40
2018-11-04T16:42:02.017Z,27.40
2018-11-04T16:44:30.596Z,25.80
2018-11-04T16:46:59.244Z,25.60
2018-11-04T16:49:27.770Z,21.80
2018-11-04T16:51:56.341Z,21.60
2018-11-04T16:54:24.898Z,21.23
2018-11-04T16:56:54.742Z,24.17
2018-11-04T16:59:24.563Z,24.30
2018-11-04T17:01:53.179Z,25.40
2018-11-04T17:04:21.925Z,25.53
2018-11-04T17:06:50.358Z,26.50
2018-11-04T17:09:19.000Z,25.57
2018-11-04T17:11:47.558Z,25.20
2018-11-04T17:14:16.091Z,24.90
2018-11-04T17:16:44.638Z,27.50
2018-11-04T17:19:13.171Z,29.03
2018-11-04T17:21:41.731Z,25.97
2018-11-04T17:24:10.249Z,26.00
2018-11-04T17:26:38.861Z,27.90
2018-11-04T17:29:07.455Z,29.03
2018-11-04T17:31:36.008Z,23.93
2018-11-04T17:34:05.024Z,31.33
2018-11-04T17:36:33.627Z,27.87
2018-11-04T17:39:02.138Z,35.63
2018-11-04T17:41:31.587Z,34.40
2018-11-04T17:44:00.280Z,30.70
2018-11-04T17:46:28.807Z,30.53
2018-11-04T17:48:57.326Z,29.33
2018-11-04T17:51:25.859Z,27.40
2018-11-04T17:53:54.451Z,30.17
2018-11-04T17:56:22.983Z,29.73
2018-11-04T17:58:51.565Z,29.43
2018-11-04T18:01:20.175Z,30.30
2018-11-04T18:03:48.724Z,31.87
2018-11-04T18:06:17.609Z,30.43
2018-11-04T18:08:46.158Z,29.40
2018-11-04T18:11:14.714Z,33.43
2018-11-04T18:13:43.395Z,30.80
2018-11-04T18:16:12.111Z,25.97
2018-11-04T18:18:40.984Z,26.90
2018-11-04T18:21:09.538Z,27.57
2018-11-04T18:23:38.088Z,27.53
2018-11-04T18:26:06.735Z,26.60
2018-11-04T18:28:35.298Z,28.03
2018-11-04T18:31:03.859Z,27.33
2018-11-04T18:33:32.611Z,26.60
2018-11-04T18:36:01.307Z,27.40
2018-11-04T18:38:29.782Z,24.90
2018-11-04T18:40:58.330Z,25.83
2018-11-04T18:43:26.849Z,23.73
2018-11-04T18:45:55.404Z,23.67
2018-11-04T18:48:23.926Z,25.13
2018-11-04T18:50:52.514Z,23.00
2018-11-04T18:53:21.046Z,22.03
2018-11-04T18:55:49.638Z,32.90
2018-11-04T18:58:18.286Z,25.07
2018-11-04T19:00:46.836Z,21.10
2018-11-04T19:03:15.377Z,22.90
2018-11-04T19:05:43.926Z,21.73
2018-11-04T19:08:12.494Z,21.27
2018-11-04T19:10:41.130Z,17.80
2018-11-04T19:13:09.691Z,23.80
2018-11-04T19:15:38.472Z,18.67
2018-11-04T19:18:07.026Z,20.93
2018-11-04T19:20:35.757Z,17.50
2018-11-04T19:23:04.411Z,25.70
2018-11-04T19:25:32.942Z,24.97
2018-11-04T19:28:02.104Z,22.97
2018-11-04T19:30:31.012Z,18.30
2018-11-04T19:32:59.559Z,18.33
2018-11-04T19:35:28.090Z,18.57
2018-11-04T19:37:56.700Z,19.00
2018-11-04T19:40:25.305Z,18.37
2018-11-04T19:42:53.935Z,22.80
2018-11-04T19:45:22.449Z,16.90
2018-11-04T19:47:51.059Z,21.80
2018-11-04T19:50:19.687Z,18.13
2018-11-04T19:52:48.253Z,24.60
2018-11-04T19:55:17.027Z,19.03
2018-11-04T19:57:45.595Z,20.70
2018-11-04T20:00:14.464Z,21.17
2018-11-04T20:02:43.032Z,17.23
2018-11-04T20:05:12.562Z,21.87
2018-11-04T20:07:41.154Z,22.33
2018-11-04T20:10:13.112Z,20.97
2018-11-04T20:12:47.006Z,17.40
2018-11-04T20:15:15.806Z,18.50
2018-11-04T20:17:44.990Z,19.30
2018-11-04T20:20:15.788Z,17.07
2018-11-04T20:22:44.282Z,20.67
2018-11-04T20:25:18.081Z,20.10
2018-11-04T20:27:46.664Z,19.60
2018-11-04T20:30:15.563Z,18.03
2018-11-04T20:32:49.430Z,17.67
2018-11-04T20:35:17.964Z,20.07
2018-11-04T20:37:46.548Z,27.23
2018-11-04T20:40:20.389Z,18.50
2018-11-04T20:42:48.980Z,18.17
2018-11-04T20:45:17.599Z,18.17
2018-11-04T20:47:51.535Z,19.27
2018-11-04T20:50:25.305Z,16.13
2018-11-04T20:52:53.879Z,16.47
2018-11-04T20:55:22.500Z,19.10
2018-11-04T20:57:54.374Z,15.53
2018-11-04T21:00:23.067Z,20.17
2018-11-04T21:02:51.890Z,18.37
2018-11-04T21:05:20.419Z,15.37
2018-11-04T21:07:49.186Z,19.43
2018-11-04T21:10:17.997Z,27.93
2018-11-04T21:12:46.576Z,16.47
2018-11-04T21:15:15.126Z,17.60
2018-11-04T21:17:43.853Z,15.73
2018-11-04T21:20:12.397Z,18.53
2018-11-04T21:22:40.923Z,19.80
2018-11-04T21:25:09.641Z,19.00
2018-11-04T21:27:38.178Z,23.30
2018-11-04T21:30:09.297Z,17.53
2018-11-04T21:32:37.832Z,20.70
2018-11-04T21:35:07.592Z,17.20
2018-11-04T21:37:36.859Z,24.30
2018-11-04T21:40:06.358Z,19.70
2018-11-04T21:42:35.159Z,17.53
2018-11-04T21:45:03.879Z,15.23
2018-11-04T21:47:32.411Z,20.13
2018-11-04T21:50:01.474Z,18.40
2018-11-04T21:52:30.018Z,15.60
2018-11-04T21:54:58.796Z,26.70
2018-11-04T21:57:27.380Z,17.63
2018-11-04T21:59:55.953Z,15.73
2018-11-04T22:02:24.915Z,24.33
2018-11-04T22:04:53.393Z,17.10
2018-11-04T22:07:22.371Z,18.70
2018-11-04T22:09:50.956Z,19.87
2018-11-04T22:12:19.577Z,19.00
2018-11-04T22:14:48.554Z,23.47
2018-11-04T22:17:17.147Z,20.30
2018-11-04T22:19:46.127Z,26.23
2018-11-04T22:22:14.669Z,19.87
2018-11-04T22:24:43.506Z,22.80
2018-11-04T22:27:12.127Z,21.40
2018-11-04T22:29:40.687Z,22.10
2018-11-04T22:32:09.516Z,22.70
2018-11-04T22:34:38.112Z,26.03
2018-11-04T22:37:06.984Z,23.13
2018-11-04T22:39:35.686Z,19.43
2018-11-04T22:42:04.372Z,22.83
2018-11-04T22:44:33.086Z,22.97
2018-11-04T22:47:01.791Z,19.20
2018-11-04T22:49:30.353Z,24.17
2018-11-04T22:54:29.658Z,17.63
2018-11-04T22:56:58.272Z,27.00
2018-11-04T22:59:26.846Z,21.77
2018-11-04T23:01:55.530Z,20.20
2018-11-04T23:04:29.460Z,19.10
2018-11-04T23:06:58.066Z,14.80
2018-11-04T23:09:26.667Z,17.37
2018-11-04T23:11:55.223Z,17.20
2018-11-04T23:14:23.785Z,21.30
2018-11-04T23:16:52.426Z,17.20
2018-11-04T23:19:20.987Z,15.00
2018-11-04T23:21:49.845Z,19.50
2018-11-04T23:24:18.486Z,18.83
2018-11-04T23:26:47.025Z,16.87
2018-11-04T23:29:15.582Z,17.23
2018-11-04T23:31:44.120Z,17.23
2018-11-04T23:34:12.672Z,21.40
2018-11-04T23:36:41.214Z,18.40
2018-11-04T23:39:10.486Z,17.57
2018-11-04T23:41:39.141Z,14.97
2018-11-04T23:44:07.856Z,17.47
2018-11-04T23:46:36.423Z,15.57
2018-11-04T23:49:05.069Z,16.30
2018-11-04T23:51:33.590Z,17.60
2018-11-04T23:54:02.194Z,14.80
2018-11-04T23:56:30.715Z,14.47
2018-11-04T23:58:59.290Z,18.53
